createdAt,value
2018-07-25T00:02:20.916Z,16.10
2018-07-25T00:07:16.928Z,16.10
2018-07-25T00:09:45.074Z,16.10
2018-07-25T00:12:13.130Z,16.00
2018-07-25T00:14:41.224Z,16.00
2018-07-25T00:17:09.485Z,16.00
2018-07-25T00:19:37.682Z,16.00
2018-07-25T00:22:05.915Z,16.00
2018-07-25T00:24:34.211Z,15.90
2018-07-25T00:27:02.404Z,15.90
2018-07-25T00:29:30.477Z,15.90
2018-07-25T00:31:58.545Z,15.90
2018-07-25T00:34:26.754Z,15.90
2018-07-25T00:36:54.783Z,15.90
2018-07-25T00:39:22.849Z,15.90
2018-07-25T00:41:50.943Z,15.90
2018-07-25T00:44:19.092Z,15.80
2018-07-25T00:46:47.288Z,15.70
2018-07-25T00:49:15.274Z,15.70
2018-07-25T00:51:43.305Z,15.70
2018-07-25T00:54:11.511Z,15.70
2018-07-25T00:56:39.587Z,15.70
2018-07-25T00:59:07.740Z,15.60
2018-07-25T01:01:35.959Z,15.70
2018-07-25T01:04:04.248Z,15.70
2018-07-25T01:06:32.383Z,15.70
2018-07-25T01:09:00.445Z,15.70
2018-07-25T01:11:28.529Z,15.60
2018-07-25T01:13:56.620Z,15.60
2018-07-25T01:16:24.678Z,15.50
2018-07-25T01:18:52.729Z,15.50
2018-07-25T01:21:20.837Z,15.50
2018-07-25T01:23:49.088Z,15.60
2018-07-25T01:26:17.161Z,15.60
2018-07-25T01:28:45.343Z,15.60
2018-07-25T01:31:13.525Z,15.50
2018-07-25T01:33:41.564Z,15.50
2018-07-25T01:38:37.513Z,15.50
2018-07-25T01:41:05.646Z,15.50
2018-07-25T01:43:33.687Z,15.50
2018-07-25T01:46:01.730Z,15.50
2018-07-25T01:48:29.854Z,15.50
2018-07-25T01:50:58.233Z,15.50
2018-07-25T01:53:26.293Z,15.50
2018-07-25T01:55:54.356Z,15.50
2018-07-25T01:58:22.404Z,15.50
2018-07-25T02:01:02.262Z,15.50
2018-07-25T02:03:41.015Z,15.50
2018-07-25T02:06:11.848Z,15.50
2018-07-25T02:08:44.999Z,15.40
2018-07-25T02:13:48.409Z,15.30
2018-07-25T02:18:49.116Z,15.30
2018-07-25T02:21:17.198Z,15.20
2018-07-25T02:23:45.248Z,15.20
2018-07-25T02:26:13.313Z,15.20
2018-07-25T02:28:41.510Z,15.10
2018-07-25T02:31:09.731Z,15.10
2018-07-25T02:36:11.344Z,15.10
2018-07-25T02:38:39.436Z,15.20
2018-07-25T02:41:07.486Z,15.20
2018-07-25T02:43:35.595Z,15.20
2018-07-25T02:46:03.748Z,15.20
2018-07-25T02:48:31.926Z,15.10
2018-07-25T02:51:00.120Z,15.10
2018-07-25T02:53:28.249Z,15.10
2018-07-25T02:55:56.583Z,15.10
2018-07-25T02:58:24.626Z,15.10
2018-07-25T03:00:52.885Z,15.10
2018-07-25T03:03:20.913Z,15.00
2018-07-25T03:05:49.356Z,15.00
2018-07-25T03:08:17.752Z,15.00
2018-07-25T03:10:52.046Z,14.90
2018-07-25T03:13:20.744Z,14.90
2018-07-25T03:16:09.195Z,14.90
2018-07-25T03:18:37.680Z,14.90
2018-07-25T03:21:05.804Z,14.90
2018-07-25T03:23:35.088Z,14.80
2018-07-25T03:26:03.541Z,14.80
2018-07-25T03:28:31.749Z,14.80
2018-07-25T03:31:00.690Z,14.80
2018-07-25T03:33:28.797Z,14.80
2018-07-25T03:35:57.997Z,14.80
2018-07-25T03:38:26.711Z,14.80
2018-07-25T03:43:23.414Z,14.80
2018-07-25T03:45:52.017Z,14.90
2018-07-25T03:48:35.647Z,14.90
2018-07-25T03:51:04.208Z,14.90
2018-07-25T03:53:32.278Z,14.90
2018-07-25T03:56:00.671Z,14.90
2018-07-25T03:58:29.595Z,14.90
2018-07-25T04:00:57.750Z,15.00
2018-07-25T04:03:25.804Z,15.00
2018-07-25T04:05:53.912Z,15.20
2018-07-25T04:08:22.065Z,15.40
2018-07-25T04:10:50.113Z,15.60
2018-07-25T04:13:19.180Z,16.00
2018-07-25T04:15:47.411Z,16.40
2018-07-25T04:18:15.465Z,16.80
2018-07-25T04:20:43.569Z,17.30
2018-07-25T04:23:11.629Z,17.60
2018-07-25T04:25:39.725Z,17.90
2018-07-25T04:28:07.753Z,18.10
2018-07-25T04:30:35.851Z,18.40
2018-07-25T04:33:04.213Z,18.70
2018-07-25T04:35:32.328Z,19.10
2018-07-25T04:38:00.486Z,19.40
2018-07-25T04:40:28.700Z,19.60
2018-07-25T04:42:57.057Z,19.70
2018-07-25T04:45:25.147Z,20.10
2018-07-25T04:47:53.190Z,20.50
2018-07-25T04:50:21.327Z,21.10
2018-07-25T04:55:17.378Z,21.90
2018-07-25T04:57:45.555Z,21.70
2018-07-25T05:00:13.768Z,22.00
2018-07-25T05:02:41.912Z,22.20
2018-07-25T05:05:10.002Z,22.70
2018-07-25T05:07:38.056Z,23.00
2018-07-25T05:10:06.241Z,23.20
2018-07-25T05:12:34.485Z,23.10
2018-07-25T05:15:02.581Z,23.30
2018-07-25T05:17:30.664Z,23.60
2018-07-25T05:19:58.961Z,23.90
2018-07-25T05:22:27.021Z,23.80
2018-07-25T05:24:55.185Z,23.50
2018-07-25T05:27:23.268Z,23.80
2018-07-25T05:29:51.324Z,23.90
2018-07-25T05:32:19.640Z,24.30
2018-07-25T05:34:47.885Z,24.20
2018-07-25T05:37:15.967Z,24.10
2018-07-25T05:39:44.166Z,24.20
2018-07-25T05:42:12.415Z,24.40
2018-07-25T05:44:40.517Z,24.60
2018-07-25T05:47:08.676Z,24.70
2018-07-25T05:49:36.863Z,24.80
2018-07-25T05:52:04.917Z,25.00
2018-07-25T05:54:33.078Z,25.40
2018-07-25T05:57:01.272Z,25.80
2018-07-25T05:59:29.463Z,25.70
2018-07-25T06:01:57.622Z,25.40
2018-07-25T06:04:25.986Z,24.70
2018-07-25T06:06:54.068Z,23.70
2018-07-25T06:09:22.148Z,22.50
2018-07-25T06:11:50.305Z,21.90
2018-07-25T06:14:18.473Z,21.50
2018-07-25T06:16:46.608Z,21.30
2018-07-25T06:19:14.649Z,21.30
2018-07-25T06:21:42.828Z,21.20
2018-07-25T06:24:10.888Z,21.30
2018-07-25T06:26:38.956Z,21.40
2018-07-25T06:29:07.141Z,21.40
2018-07-25T06:31:35.221Z,21.60
2018-07-25T06:34:03.507Z,21.70
2018-07-25T06:36:31.554Z,21.70
2018-07-25T06:38:59.641Z,21.90
2018-07-25T06:41:27.682Z,22.00
2018-07-25T06:43:56.008Z,22.00
2018-07-25T06:46:24.127Z,22.20
2018-07-25T06:48:52.358Z,22.40
2018-07-25T06:51:20.395Z,22.40
2018-07-25T06:53:48.595Z,22.50
2018-07-25T06:56:16.847Z,22.70
2018-07-25T06:58:44.943Z,22.80
2018-07-25T07:01:13.082Z,23.00
2018-07-25T07:06:08.987Z,23.00
2018-07-25T07:08:36.996Z,22.90
2018-07-25T07:13:32.988Z,23.30
2018-07-25T07:16:01.122Z,23.20
2018-07-25T07:20:57.186Z,23.40
2018-07-25T07:23:25.501Z,23.50
2018-07-25T07:25:53.678Z,23.60
2018-07-25T07:28:21.944Z,23.80
2018-07-25T07:30:49.999Z,23.90
2018-07-25T07:33:18.081Z,24.10
2018-07-25T07:35:46.145Z,24.10
2018-07-25T07:38:14.206Z,24.30
2018-07-25T07:40:42.303Z,24.50
2018-07-25T07:43:10.365Z,24.60
2018-07-25T07:45:38.459Z,24.70
2018-07-25T07:48:06.616Z,24.70
2018-07-25T07:50:34.779Z,24.60
2018-07-25T07:53:02.879Z,24.80
2018-07-25T07:55:30.929Z,24.90
2018-07-25T07:57:59.084Z,25.10
2018-07-25T08:00:27.196Z,25.30
2018-07-25T08:02:55.360Z,25.20
2018-07-25T08:05:24.386Z,25.30
2018-07-25T08:07:52.434Z,25.60
2018-07-25T08:10:20.671Z,25.60
2018-07-25T08:15:16.559Z,25.80
2018-07-25T08:17:44.675Z,25.90
2018-07-25T08:20:12.669Z,26.00
2018-07-25T08:22:40.760Z,26.10
2018-07-25T08:25:08.842Z,26.10
2018-07-25T08:27:36.993Z,26.10
2018-07-25T08:30:05.549Z,26.30
2018-07-25T08:32:33.579Z,26.40
2018-07-25T08:35:01.626Z,26.50
2018-07-25T08:37:29.929Z,26.60
2018-07-25T08:39:57.963Z,26.70
2018-07-25T08:44:54.047Z,26.60
2018-07-25T08:47:22.384Z,26.90
2018-07-25T08:52:18.356Z,26.90
2018-07-25T08:54:46.419Z,26.90
2018-07-25T08:57:14.533Z,27.00
2018-07-25T08:59:42.660Z,27.10
2018-07-25T09:02:10.889Z,27.10
2018-07-25T09:04:39.013Z,27.30
2018-07-25T09:07:07.116Z,27.30
2018-07-25T09:09:35.293Z,27.40
2018-07-25T09:12:03.563Z,27.60
2018-07-25T09:14:31.727Z,27.70
2018-07-25T09:16:59.815Z,27.90
2018-07-25T09:19:28.044Z,28.00
2018-07-25T09:24:24.022Z,27.70
2018-07-25T09:26:52.098Z,27.90
2018-07-25T09:29:20.285Z,28.00
2018-07-25T09:31:48.564Z,27.90
2018-07-25T09:34:16.718Z,28.10
2018-07-25T09:36:44.806Z,28.20
2018-07-25T09:39:12.948Z,28.30
2018-07-25T09:41:41.054Z,28.30
2018-07-25T09:44:09.241Z,28.40
2018-07-25T09:46:37.297Z,28.40
2018-07-25T09:49:05.761Z,28.30
2018-07-25T09:51:33.848Z,28.50
2018-07-25T09:54:02.026Z,28.40
2018-07-25T09:56:30.099Z,28.30
2018-07-25T09:58:58.308Z,28.50
2018-07-25T10:01:26.728Z,28.50
2018-07-25T10:03:54.957Z,28.60
2018-07-25T10:06:22.999Z,28.80
2018-07-25T10:08:51.154Z,28.80
2018-07-25T10:11:19.345Z,28.80
2018-07-25T10:13:47.525Z,28.70
2018-07-25T10:16:15.708Z,28.70
2018-07-25T10:18:43.841Z,28.90
2018-07-25T10:21:11.840Z,29.10
2018-07-25T10:23:40.034Z,29.20
2018-07-25T10:26:08.077Z,29.20
2018-07-25T10:28:36.213Z,29.30
2018-07-25T10:31:04.342Z,29.30
2018-07-25T10:33:32.408Z,29.40
2018-07-25T10:36:00.617Z,29.40
2018-07-25T10:38:28.653Z,29.50
2018-07-25T10:40:56.765Z,29.50
2018-07-25T10:43:25.074Z,29.40
2018-07-25T10:48:21.307Z,29.30
2018-07-25T10:50:49.361Z,29.40
2018-07-25T10:53:17.537Z,29.30
2018-07-25T10:55:45.708Z,29.50
2018-07-25T10:58:13.791Z,29.70
2018-07-25T11:00:41.956Z,29.80
2018-07-25T11:03:09.996Z,29.80
2018-07-25T11:05:38.201Z,29.70
2018-07-25T11:08:06.585Z,29.90
2018-07-25T11:10:34.737Z,29.90
2018-07-25T11:13:02.988Z,30.00
2018-07-25T11:17:58.849Z,30.40
2018-07-25T11:20:26.968Z,30.40
2018-07-25T11:22:55.024Z,30.50
2018-07-25T11:25:23.060Z,30.10
2018-07-25T11:27:51.268Z,30.20
2018-07-25T11:30:19.428Z,30.00
2018-07-25T11:32:47.697Z,30.00
2018-07-25T11:35:15.793Z,30.20
2018-07-25T11:37:43.940Z,30.40
2018-07-25T11:40:12.165Z,30.50
2018-07-25T11:42:40.072Z,30.60
2018-07-25T11:47:36.135Z,30.50
2018-07-25T11:50:04.588Z,30.60
2018-07-25T11:52:32.620Z,30.60
2018-07-25T11:55:00.671Z,30.50
2018-07-25T11:57:28.860Z,30.30
2018-07-25T11:59:57.069Z,30.50
2018-07-25T12:02:25.228Z,30.20
2018-07-25T12:04:53.385Z,30.00
2018-07-25T12:07:21.686Z,30.20
2018-07-25T12:09:49.732Z,30.20
2018-07-25T12:12:17.800Z,30.00
2018-07-25T12:14:45.895Z,29.80
2018-07-25T12:17:14.153Z,30.10
2018-07-25T12:19:42.242Z,30.30
2018-07-25T12:22:10.514Z,30.60
2018-07-25T12:24:38.682Z,30.80
2018-07-25T12:27:06.783Z,30.80
2018-07-25T12:29:34.832Z,30.80
2018-07-25T12:32:03.028Z,30.20
2018-07-25T12:34:31.077Z,29.60
2018-07-25T12:36:59.366Z,29.50
2018-07-25T12:39:27.541Z,29.90
2018-07-25T12:41:55.721Z,30.30
2018-07-25T12:44:23.886Z,30.70
2018-07-25T12:46:51.972Z,30.70
2018-07-25T12:49:20.123Z,30.70
2018-07-25T12:51:48.445Z,30.80
2018-07-25T12:54:16.853Z,30.90
2018-07-25T12:56:44.961Z,31.10
2018-07-25T12:59:13.156Z,31.20
2018-07-25T13:01:41.256Z,31.40
2018-07-25T13:04:09.502Z,31.30
2018-07-25T13:06:37.803Z,31.20
2018-07-25T13:09:08.885Z,30.80
2018-07-25T13:14:05.479Z,29.80
2018-07-25T13:16:33.744Z,30.00
2018-07-25T13:19:02.105Z,30.40
2018-07-25T13:21:30.213Z,30.50
2018-07-25T13:23:58.491Z,30.50
2018-07-25T13:26:26.656Z,30.60
2018-07-25T13:28:54.933Z,30.90
2018-07-25T13:31:22.986Z,30.20
2018-07-25T13:33:51.317Z,29.40
2018-07-25T13:36:19.349Z,29.30
2018-07-25T13:38:47.545Z,29.70
2018-07-25T13:41:15.720Z,30.30
2018-07-25T13:43:43.792Z,30.50
2018-07-25T13:46:12.079Z,30.80
2018-07-25T13:48:40.116Z,30.90
2018-07-25T13:51:08.432Z,31.00
2018-07-25T13:53:36.589Z,31.20
2018-07-25T13:56:04.848Z,31.10
2018-07-25T13:58:33.058Z,30.90
2018-07-25T14:01:01.093Z,30.90
2018-07-25T14:03:29.301Z,30.80
2018-07-25T14:05:57.469Z,30.60
2018-07-25T14:08:25.619Z,30.90
2018-07-25T14:10:53.826Z,30.90
2018-07-25T14:13:21.992Z,31.10
2018-07-25T14:15:50.168Z,31.20
2018-07-25T14:18:18.273Z,31.10
2018-07-25T14:20:47.168Z,31.30
2018-07-25T14:23:15.536Z,31.30
2018-07-25T14:25:43.986Z,31.50
2018-07-25T14:28:12.495Z,31.40
2018-07-25T14:30:40.988Z,31.50
2018-07-25T14:33:09.025Z,31.60
2018-07-25T14:35:37.282Z,31.60
2018-07-25T14:38:05.903Z,31.80
2018-07-25T14:40:34.177Z,31.80
2018-07-25T14:43:02.322Z,31.80
2018-07-25T14:45:30.763Z,32.00
2018-07-25T14:47:58.904Z,32.00
2018-07-25T14:50:27.211Z,32.00
2018-07-25T14:52:55.700Z,31.90
2018-07-25T14:55:23.832Z,32.00
2018-07-25T14:57:52.127Z,32.00
2018-07-25T15:00:20.281Z,32.20
2018-07-25T15:02:48.526Z,32.20
2018-07-25T15:05:16.652Z,32.50
2018-07-25T15:07:44.728Z,32.80
2018-07-25T15:10:12.912Z,33.00
2018-07-25T15:12:43.069Z,33.20
2018-07-25T15:17:39.776Z,33.30
2018-07-25T15:20:08.928Z,32.70
2018-07-25T15:25:05.721Z,33.10
2018-07-25T15:27:34.178Z,32.50
2018-07-25T15:30:02.625Z,31.70
2018-07-25T15:32:31.063Z,31.10
2018-07-25T15:35:05.357Z,30.10
2018-07-25T15:37:33.698Z,29.80
2018-07-25T15:40:01.752Z,26.20
2018-07-25T15:42:29.956Z,23.40
2018-07-25T15:44:58.082Z,22.90
2018-07-25T15:47:26.213Z,22.90
2018-07-25T15:49:54.245Z,22.60
2018-07-25T15:52:22.673Z,22.50
2018-07-25T15:54:50.908Z,22.50
2018-07-25T15:57:19.012Z,22.60
2018-07-25T15:59:47.304Z,23.00
2018-07-25T16:02:15.456Z,23.10
2018-07-25T16:04:43.693Z,23.20
2018-07-25T16:07:12.096Z,23.40
2018-07-25T16:09:40.752Z,23.60
2018-07-25T16:12:08.957Z,23.90
2018-07-25T16:14:37.036Z,24.20
2018-07-25T16:17:06.322Z,24.30
2018-07-25T16:19:36.454Z,24.50
2018-07-25T16:22:05.742Z,24.60
2018-07-25T16:24:34.155Z,24.50
2018-07-25T16:27:02.540Z,24.30
2018-07-25T16:29:30.986Z,24.20
2018-07-25T16:31:59.318Z,24.00
2018-07-25T16:36:55.549Z,23.70
2018-07-25T16:39:23.676Z,23.70
2018-07-25T16:41:51.800Z,23.80
2018-07-25T16:44:20.157Z,24.10
2018-07-25T16:46:48.465Z,25.60
2018-07-25T16:49:16.600Z,26.20
2018-07-25T16:51:44.704Z,27.70
2018-07-25T16:54:13.148Z,27.90
2018-07-25T16:56:41.452Z,27.10
2018-07-25T16:59:09.620Z,26.60
2018-07-25T17:01:37.718Z,26.80
2018-07-25T17:06:34.139Z,30.50
2018-07-25T17:09:02.209Z,31.70
2018-07-25T17:11:30.294Z,32.60
2018-07-25T17:13:58.260Z,32.90
2018-07-25T17:16:26.332Z,33.00
2018-07-25T17:18:54.695Z,30.90
2018-07-25T17:21:22.753Z,30.40
2018-07-25T17:23:50.723Z,29.80
2018-07-25T17:26:18.701Z,30.20
2018-07-25T17:28:46.733Z,29.00
2018-07-25T17:31:14.794Z,28.10
2018-07-25T17:33:42.823Z,27.00
2018-07-25T17:36:10.924Z,26.40
2018-07-25T17:38:39.056Z,26.00
2018-07-25T17:41:07.030Z,25.90
2018-07-25T17:43:35.046Z,25.70
2018-07-25T17:46:03.293Z,25.50
2018-07-25T17:48:31.267Z,25.40
2018-07-25T17:50:59.254Z,25.20
2018-07-25T17:53:27.376Z,25.00
2018-07-25T17:58:23.484Z,24.60
2018-07-25T18:00:51.457Z,24.40
2018-07-25T18:03:19.458Z,24.90
2018-07-25T18:05:47.396Z,25.20
2018-07-25T18:08:15.391Z,25.70
2018-07-25T18:10:43.445Z,25.80
2018-07-25T18:13:16.973Z,25.10
2018-07-25T18:18:12.801Z,23.90
2018-07-25T18:20:40.791Z,23.50
2018-07-25T18:23:08.807Z,23.10
2018-07-25T18:25:36.871Z,22.80
2018-07-25T18:28:04.913Z,22.50
2018-07-25T18:33:00.770Z,22.60
2018-07-25T18:35:28.903Z,22.80
2018-07-25T18:37:56.885Z,22.90
2018-07-25T18:40:24.883Z,22.90
2018-07-25T18:42:53.145Z,22.80
2018-07-25T18:45:21.222Z,22.70
2018-07-25T18:47:49.307Z,22.60
2018-07-25T18:50:17.317Z,22.60
2018-07-25T18:52:45.321Z,22.50
2018-07-25T18:55:13.281Z,22.50
2018-07-25T18:57:41.272Z,22.50
2018-07-25T19:00:10.456Z,22.30
2018-07-25T19:02:38.497Z,22.20
2018-07-25T19:05:06.740Z,22.10
2018-07-25T19:10:02.589Z,22.00
2018-07-25T19:15:03.895Z,21.90
2018-07-25T19:17:31.849Z,21.80
2018-07-25T19:20:02.008Z,21.70
2018-07-25T19:22:31.307Z,21.70
2018-07-25T19:24:59.319Z,21.50
2018-07-25T19:30:05.838Z,21.40
2018-07-25T19:32:36.238Z,21.40
2018-07-25T19:37:36.762Z,21.00
2018-07-25T19:40:07.461Z,20.70
2018-07-25T19:42:37.366Z,20.50
2018-07-25T19:45:05.459Z,20.50
2018-07-25T19:47:33.484Z,20.60
2018-07-25T19:52:29.348Z,20.40
2018-07-25T19:54:57.321Z,20.30
2018-07-25T19:57:25.252Z,20.10
2018-07-25T19:59:53.276Z,19.90
2018-07-25T20:02:21.203Z,19.80
2018-07-25T20:07:16.949Z,20.00
2018-07-25T20:09:44.896Z,19.90
2018-07-25T20:12:12.829Z,19.70
2018-07-25T20:14:46.445Z,19.30
2018-07-25T20:17:15.087Z,19.10
2018-07-25T20:19:43.139Z,19.00
2018-07-25T20:22:11.151Z,18.80
2018-07-25T20:24:39.056Z,18.70
2018-07-25T20:27:07.052Z,18.60
2018-07-25T20:32:02.756Z,18.60
2018-07-25T20:34:30.654Z,18.60
2018-07-25T20:36:58.640Z,18.60
2018-07-25T20:41:54.375Z,18.70
2018-07-25T20:46:50.111Z,18.60
2018-07-25T20:51:45.825Z,18.50
2018-07-25T20:54:13.783Z,18.40
2018-07-25T20:56:41.793Z,18.20
2018-07-25T21:01:37.512Z,18.00
2018-07-25T21:04:05.488Z,18.00
2018-07-25T21:06:33.520Z,18.00
2018-07-25T21:09:01.441Z,18.00
2018-07-25T21:13:57.141Z,18.00
2018-07-25T21:16:25.065Z,18.10
2018-07-25T21:18:53.045Z,18.10
2018-07-25T21:21:21.040Z,18.20
2018-07-25T21:23:48.956Z,18.20
2018-07-25T21:28:44.741Z,18.00
2018-07-25T21:31:12.659Z,18.00
2018-07-25T21:36:08.359Z,17.80
2018-07-25T21:38:36.371Z,17.70
2018-07-25T21:43:32.101Z,17.70
2018-07-25T21:48:28.467Z,17.80
2018-07-25T21:50:56.453Z,18.00
2018-07-25T21:53:24.397Z,18.10
2018-07-25T21:55:52.326Z,18.10
2018-07-25T21:58:20.254Z,18.20
2018-07-25T22:00:57.942Z,18.20
2018-07-25T22:03:25.853Z,18.20
2018-07-25T22:05:53.848Z,18.30
2018-07-25T22:08:21.846Z,18.30
2018-07-25T22:10:49.808Z,18.30
2018-07-25T22:13:17.740Z,18.40
2018-07-25T22:15:45.675Z,18.30
2018-07-25T22:18:13.635Z,18.30
2018-07-25T22:23:09.375Z,18.30
2018-07-25T22:25:37.316Z,18.30
2018-07-25T22:28:05.379Z,18.30
2018-07-25T22:30:33.331Z,18.20
2018-07-25T22:33:01.359Z,18.10
2018-07-25T22:35:29.305Z,18.10
2018-07-25T22:37:57.218Z,18.20
2018-07-25T22:40:25.174Z,18.30
2018-07-25T22:42:53.137Z,18.20
2018-07-25T22:47:48.840Z,18.10
2018-07-25T22:50:16.832Z,18.00
2018-07-25T22:55:12.930Z,17.90
2018-07-25T22:57:41.003Z,17.90
2018-07-25T23:00:09.257Z,17.90
2018-07-25T23:02:37.378Z,17.70
2018-07-25T23:05:05.398Z,17.60
2018-07-25T23:07:33.344Z,17.50
2018-07-25T23:12:29.328Z,17.20
2018-07-25T23:14:57.298Z,17.10
2018-07-25T23:17:25.496Z,17.00
2018-07-25T23:19:53.502Z,17.00
2018-07-25T23:22:21.428Z,16.90
2018-07-25T23:24:49.428Z,17.00
2018-07-25T23:27:17.384Z,17.20
2018-07-25T23:29:45.309Z,17.20
2018-07-25T23:32:13.265Z,17.40
2018-07-25T23:39:36.784Z,17.20
2018-07-25T23:42:04.764Z,17.10
2018-07-25T23:44:32.684Z,16.90
2018-07-25T23:47:00.610Z,16.80
2018-07-25T23:49:28.570Z,16.60
2018-07-25T23:51:56.553Z,16.40
2018-07-25T23:54:24.463Z,16.30
2018-07-25T23:56:52.459Z,16.40
